sensor_id;sensor_type;location;lat;lon;timestamp;temperature;humidity
42479;DHT22;28110;47.080;9.476;2022-09-12T00:01:02;15.10;99.90
42479;DHT22;28110;47.080;9.476;2022-09-12T00:03:28;15.10;99.90
42479;DHT22;28110;47.080;9.476;2022-09-12T00:05:53;15.10;99.90
42479;DHT22;28110;47.080;9.476;2022-09-12T00:08:19;15.00;99.90
42479;DHT22;28110;47.080;9.476;2022-09-12T00:10:44;15.00;99.90
42479;DHT22;28110;47.080;9.476;2022-09-12T00:13:10;15.00;99.90
42479;DHT22;28110;47.080;9.476;2022-09-12T00:15:41;15.00;99.90
42479;DHT22;28110;47.080;9.476;2022-09-12T00:18:09;15.00;99.90
42479;DHT22;28110;47.080;9.476;2022-09-12T00:20:41;15.00;99.90
42479;DHT22;28110;47.080;9.476;2022-09-12T00:23:06;15.00;99.90
42479;DHT22;28110;47.080;9.476;2022-09-12T00:25:32;14.90;99.90
42479;DHT22;28110;47.080;9.476;2022-09-12T00:27:57;14.80;99.90
42479;DHT22;28110;47.080;9.476;2022-09-12T00:30:23;14.80;99.90
42479;DHT22;28110;47.080;9.476;2022-09-12T00:32:48;14.80;99.90
42479;DHT22;28110;47.080;9.476;2022-09-12T00:35:15;14.80;99.90
42479;DHT22;28110;47.080;9.476;2022-09-12T00:37:41;14.90;99.90
42479;DHT22;28110;47.080;9.476;2022-09-12T00:40:07;14.90;99.90
42479;DHT22;28110;47.080;9.476;2022-09-12T00:42:32;14.90;99.90
42479;DHT22;28110;47.080;9.476;2022-09-12T00:44:58;14.90;99.90
42479;DHT22;28110;47.080;9.476;2022-09-12T00:47:26;14.90;99.90
42479;DHT22;28110;47.080;9.476;2022-09-12T00:50:07;14.90;99.90
42479;DHT22;28110;47.080;9.476;2022-09-12T00:52:43;14.90;99.90
42479;DHT22;28110;47.080;9.476;2022-09-12T00:58:20;14.90;99.90
42479;DHT22;28110;47.080;9.476;2022-09-12T01:00:46;14.90;99.90
42479;DHT22;28110;47.080;9.476;2022-09-12T01:03:16;15.00;99.90
42479;DHT22;28110;47.080;9.476;2022-09-12T01:05:51;15.00;99.90
42479;DHT22;28110;47.080;9.476;2022-09-12T01:08:18;15.00;99.90
42479;DHT22;28110;47.080;9.476;2022-09-12T01:10:45;14.90;99.90
42479;DHT22;28110;47.080;9.476;2022-09-12T01:13:10;14.90;99.90
42479;DHT22;28110;47.080;9.476;2022-09-12T01:15:37;14.90;99.90
42479;DHT22;28110;47.080;9.476;2022-09-12T01:29:34;14.70;99.90
42479;DHT22;28110;47.080;9.476;2022-09-12T01:37:41;14.70;99.90
42479;DHT22;28110;47.080;9.476;2022-09-12T01:40:13;14.70;99.90
42479;DHT22;28110;47.080;9.476;2022-09-12T01:45:31;14.60;99.90
42479;DHT22;28110;47.080;9.476;2022-09-12T01:48:23;14.60;99.90
42479;DHT22;28110;47.080;9.476;2022-09-12T01:50:57;14.50;99.90
42479;DHT22;28110;47.080;9.476;2022-09-12T01:53:30;14.60;99.90
42479;DHT22;28110;47.080;9.476;2022-09-12T01:58:43;14.80;99.90
42479;DHT22;28110;47.080;9.476;2022-09-12T02:01:23;14.80;99.90
42479;DHT22;28110;47.080;9.476;2022-09-12T02:04:07;14.70;99.90
42479;DHT22;28110;47.080;9.476;2022-09-12T02:09:38;14.60;99.90
42479;DHT22;28110;47.080;9.476;2022-09-12T02:12:09;14.70;99.90
42479;DHT22;28110;47.080;9.476;2022-09-12T02:14:40;14.60;99.90
42479;DHT22;28110;47.080;9.476;2022-09-12T02:17:10;14.60;99.90
42479;DHT22;28110;47.080;9.476;2022-09-12T02:19:41;14.60;99.90
42479;DHT22;28110;47.080;9.476;2022-09-12T02:22:10;14.60;99.90
42479;DHT22;28110;47.080;9.476;2022-09-12T02:24:42;14.60;99.90
42479;DHT22;28110;47.080;9.476;2022-09-12T02:27:14;14.60;99.90
42479;DHT22;28110;47.080;9.476;2022-09-12T02:29:42;14.60;99.90
42479;DHT22;28110;47.080;9.476;2022-09-12T02:32:35;14.60;99.90
42479;DHT22;28110;47.080;9.476;2022-09-12T02:35:13;14.60;99.90
42479;DHT22;28110;47.080;9.476;2022-09-12T02:40:17;14.60;99.90
42479;DHT22;28110;47.080;9.476;2022-09-12T02:42:43;14.60;99.90
42479;DHT22;28110;47.080;9.476;2022-09-12T02:45:09;14.60;99.90
42479;DHT22;28110;47.080;9.476;2022-09-12T02:47:41;14.60;99.90
42479;DHT22;28110;47.080;9.476;2022-09-12T02:50:08;14.60;99.90
42479;DHT22;28110;47.080;9.476;2022-09-12T02:52:34;14.50;99.90
42479;DHT22;28110;47.080;9.476;2022-09-12T02:55:01;14.50;99.90
42479;DHT22;28110;47.080;9.476;2022-09-12T02:57:29;14.50;99.90
42479;DHT22;28110;47.080;9.476;2022-09-12T02:59:58;14.40;99.90
42479;DHT22;28110;47.080;9.476;2022-09-12T03:13:57;14.30;99.90
42479;DHT22;28110;47.080;9.476;2022-09-12T03:19:24;14.30;99.90
42479;DHT22;28110;47.080;9.476;2022-09-12T03:22:02;14.30;99.90
42479;DHT22;28110;47.080;9.476;2022-09-12T03:24:57;14.30;99.90
42479;DHT22;28110;47.080;9.476;2022-09-12T03:27:36;14.20;99.90
42479;DHT22;28110;47.080;9.476;2022-09-12T03:30:07;14.20;99.90
42479;DHT22;28110;47.080;9.476;2022-09-12T03:32:44;14.20;99.90
42479;DHT22;28110;47.080;9.476;2022-09-12T03:35:11;14.20;99.90
42479;DHT22;28110;47.080;9.476;2022-09-12T03:37:37;14.30;99.90
42479;DHT22;28110;47.080;9.476;2022-09-12T03:40:04;14.20;99.90
42479;DHT22;28110;47.080;9.476;2022-09-12T03:42:30;14.20;99.90
42479;DHT22;28110;47.080;9.476;2022-09-12T03:44:55;14.20;99.90
42479;DHT22;28110;47.080;9.476;2022-09-12T03:47:21;14.20;99.90
42479;DHT22;28110;47.080;9.476;2022-09-12T03:49:46;14.20;99.90
42479;DHT22;28110;47.080;9.476;2022-09-12T03:52:12;14.20;99.90
42479;DHT22;28110;47.080;9.476;2022-09-12T03:54:38;14.20;99.90
42479;DHT22;28110;47.080;9.476;2022-09-12T03:57:04;14.20;99.90
42479;DHT22;28110;47.080;9.476;2022-09-12T03:59:30;14.20;99.90
42479;DHT22;28110;47.080;9.476;2022-09-12T04:01:56;14.10;99.90
42479;DHT22;28110;47.080;9.476;2022-09-12T04:04:21;14.10;99.90
42479;DHT22;28110;47.080;9.476;2022-09-12T04:06:47;14.10;99.90
42479;DHT22;28110;47.080;9.476;2022-09-12T04:09:12;14.10;99.90
42479;DHT22;28110;47.080;9.476;2022-09-12T04:11:38;14.20;99.90
42479;DHT22;28110;47.080;9.476;2022-09-12T04:14:03;14.20;99.90
42479;DHT22;28110;47.080;9.476;2022-09-12T04:16:29;14.10;99.90
42479;DHT22;28110;47.080;9.476;2022-09-12T04:18:54;14.10;99.90
42479;DHT22;28110;47.080;9.476;2022-09-12T04:21:20;14.10;99.90
42479;DHT22;28110;47.080;9.476;2022-09-12T04:23:46;14.10;99.90
42479;DHT22;28110;47.080;9.476;2022-09-12T04:26:13;14.10;99.90
42479;DHT22;28110;47.080;9.476;2022-09-12T04:28:39;14.10;99.90
42479;DHT22;28110;47.080;9.476;2022-09-12T04:31:08;14.10;99.90
42479;DHT22;28110;47.080;9.476;2022-09-12T04:33:34;14.10;99.90
42479;DHT22;28110;47.080;9.476;2022-09-12T04:36:15;14.00;99.90
42479;DHT22;28110;47.080;9.476;2022-09-12T04:38:42;14.00;99.90
42479;DHT22;28110;47.080;9.476;2022-09-12T04:41:19;13.90;99.90
42479;DHT22;28110;47.080;9.476;2022-09-12T04:43:46;13.90;99.90
42479;DHT22;28110;47.080;9.476;2022-09-12T04:46:14;13.80;99.90
42479;DHT22;28110;47.080;9.476;2022-09-12T04:48:41;13.80;99.90
42479;DHT22;28110;47.080;9.476;2022-09-12T04:51:19;13.80;99.90
42479;DHT22;28110;47.080;9.476;2022-09-12T04:53:50;13.90;99.90
42479;DHT22;28110;47.080;9.476;2022-09-12T04:56:16;13.90;99.90
42479;DHT22;28110;47.080;9.476;2022-09-12T04:58:42;13.90;99.90
42479;DHT22;28110;47.080;9.476;2022-09-12T05:01:13;13.90;99.90
42479;DHT22;28110;47.080;9.476;2022-09-12T05:03:41;13.90;99.90
42479;DHT22;28110;47.080;9.476;2022-09-12T05:06:13;13.80;99.90
42479;DHT22;28110;47.080;9.476;2022-09-12T05:08:38;13.80;99.90
42479;DHT22;28110;47.080;9.476;2022-09-12T05:11:06;13.80;99.90
42479;DHT22;28110;47.080;9.476;2022-09-12T05:13:33;13.80;99.90
42479;DHT22;28110;47.080;9.476;2022-09-12T05:16:00;13.80;99.90
42479;DHT22;28110;47.080;9.476;2022-09-12T05:18:26;13.80;99.90
42479;DHT22;28110;47.080;9.476;2022-09-12T05:20:52;13.80;99.90
42479;DHT22;28110;47.080;9.476;2022-09-12T05:23:18;13.70;99.90
42479;DHT22;28110;47.080;9.476;2022-09-12T05:25:51;13.80;99.90
42479;DHT22;28110;47.080;9.476;2022-09-12T05:28:17;13.80;99.90
42479;DHT22;28110;47.080;9.476;2022-09-12T05:30:43;13.70;99.90
42479;DHT22;28110;47.080;9.476;2022-09-12T05:33:08;13.70;99.90
42479;DHT22;28110;47.080;9.476;2022-09-12T05:35:34;13.70;99.90
42479;DHT22;28110;47.080;9.476;2022-09-12T05:38:03;13.70;99.90
42479;DHT22;28110;47.080;9.476;2022-09-12T05:40:28;13.70;99.90
42479;DHT22;28110;47.080;9.476;2022-09-12T05:42:54;13.60;99.90
42479;DHT22;28110;47.080;9.476;2022-09-12T05:45:20;13.60;99.90
42479;DHT22;28110;47.080;9.476;2022-09-12T05:47:46;13.50;99.90
42479;DHT22;28110;47.080;9.476;2022-09-12T05:50:12;13.50;99.90
42479;DHT22;28110;47.080;9.476;2022-09-12T05:52:37;13.50;99.90
42479;DHT22;28110;47.080;9.476;2022-09-12T05:55:04;13.50;99.90
42479;DHT22;28110;47.080;9.476;2022-09-12T05:57:29;13.50;99.90
42479;DHT22;28110;47.080;9.476;2022-09-12T05:59:55;13.50;99.90
42479;DHT22;28110;47.080;9.476;2022-09-12T06:02:20;13.50;99.90
42479;DHT22;28110;47.080;9.476;2022-09-12T06:04:46;13.60;99.90
42479;DHT22;28110;47.080;9.476;2022-09-12T06:07:12;13.60;99.90
42479;DHT22;28110;47.080;9.476;2022-09-12T06:09:38;13.60;99.90
42479;DHT22;28110;47.080;9.476;2022-09-12T06:12:04;13.50;99.90
42479;DHT22;28110;47.080;9.476;2022-09-12T06:14:30;13.60;99.90
42479;DHT22;28110;47.080;9.476;2022-09-12T06:16:57;13.60;99.90
42479;DHT22;28110;47.080;9.476;2022-09-12T06:19:23;13.70;99.90
42479;DHT22;28110;47.080;9.476;2022-09-12T06:21:49;13.80;99.90
42479;DHT22;28110;47.080;9.476;2022-09-12T06:24:18;13.90;99.90
42479;DHT22;28110;47.080;9.476;2022-09-12T06:26:45;14.00;99.90
42479;DHT22;28110;47.080;9.476;2022-09-12T06:29:11;14.00;99.90
42479;DHT22;28110;47.080;9.476;2022-09-12T06:31:39;14.10;99.90
42479;DHT22;28110;47.080;9.476;2022-09-12T06:34:08;14.10;99.90
42479;DHT22;28110;47.080;9.476;2022-09-12T06:36:39;14.20;99.90
42479;DHT22;28110;47.080;9.476;2022-09-12T06:39:17;14.20;99.90
42479;DHT22;28110;47.080;9.476;2022-09-12T06:41:43;14.30;99.90
42479;DHT22;28110;47.080;9.476;2022-09-12T06:44:18;14.30;99.90
42479;DHT22;28110;47.080;9.476;2022-09-12T06:46:43;14.50;99.90
42479;DHT22;28110;47.080;9.476;2022-09-12T06:49:09;14.60;99.90
42479;DHT22;28110;47.080;9.476;2022-09-12T06:51:35;14.60;99.90
42479;DHT22;28110;47.080;9.476;2022-09-12T06:54:02;14.70;99.90
42479;DHT22;28110;47.080;9.476;2022-09-12T06:56:28;14.70;99.90
42479;DHT22;28110;47.080;9.476;2022-09-12T06:58:55;14.80;99.90
42479;DHT22;28110;47.080;9.476;2022-09-12T07:01:29;14.90;99.90
42479;DHT22;28110;47.080;9.476;2022-09-12T07:03:57;14.90;99.90
42479;DHT22;28110;47.080;9.476;2022-09-12T07:06:26;15.00;99.90
42479;DHT22;28110;47.080;9.476;2022-09-12T07:09:00;15.10;99.90
42479;DHT22;28110;47.080;9.476;2022-09-12T07:11:28;15.20;99.90
42479;DHT22;28110;47.080;9.476;2022-09-12T07:13:55;15.30;99.90
42479;DHT22;28110;47.080;9.476;2022-09-12T07:16:21;15.50;99.90
42479;DHT22;28110;47.080;9.476;2022-09-12T07:18:52;15.60;99.90
42479;DHT22;28110;47.080;9.476;2022-09-12T07:21:17;15.80;99.90
42479;DHT22;28110;47.080;9.476;2022-09-12T07:23:43;15.90;99.90
42479;DHT22;28110;47.080;9.476;2022-09-12T07:26:11;16.10;99.90
42479;DHT22;28110;47.080;9.476;2022-09-12T07:28:37;16.20;99.90
42479;DHT22;28110;47.080;9.476;2022-09-12T07:31:09;16.30;99.90
42479;DHT22;28110;47.080;9.476;2022-09-12T07:33:36;16.40;99.90
42479;DHT22;28110;47.080;9.476;2022-09-12T07:36:04;16.60;99.90
42479;DHT22;28110;47.080;9.476;2022-09-12T07:38:30;16.80;99.90
42479;DHT22;28110;47.080;9.476;2022-09-12T07:40:56;16.90;99.90
42479;DHT22;28110;47.080;9.476;2022-09-12T07:43:22;17.00;99.90
42479;DHT22;28110;47.080;9.476;2022-09-12T07:45:47;17.10;99.90
42479;DHT22;28110;47.080;9.476;2022-09-12T07:48:13;17.30;99.90
42479;DHT22;28110;47.080;9.476;2022-09-12T07:50:39;17.40;99.90
42479;DHT22;28110;47.080;9.476;2022-09-12T07:53:05;17.50;99.90
42479;DHT22;28110;47.080;9.476;2022-09-12T07:55:30;17.60;99.90
42479;DHT22;28110;47.080;9.476;2022-09-12T07:57:56;17.60;99.90
42479;DHT22;28110;47.080;9.476;2022-09-12T08:00:22;17.50;99.90
42479;DHT22;28110;47.080;9.476;2022-09-12T08:02:51;17.60;99.90
42479;DHT22;28110;47.080;9.476;2022-09-12T08:05:17;17.60;99.90
42479;DHT22;28110;47.080;9.476;2022-09-12T08:07:43;17.70;99.90
42479;DHT22;28110;47.080;9.476;2022-09-12T08:10:09;17.70;99.90
42479;DHT22;28110;47.080;9.476;2022-09-12T08:12:34;17.70;99.90
42479;DHT22;28110;47.080;9.476;2022-09-12T08:15:01;17.80;99.90
42479;DHT22;28110;47.080;9.476;2022-09-12T08:17:26;17.90;99.90
42479;DHT22;28110;47.080;9.476;2022-09-12T08:19:54;18.00;99.90
42479;DHT22;28110;47.080;9.476;2022-09-12T08:22:19;18.20;99.90
42479;DHT22;28110;47.080;9.476;2022-09-12T08:24:46;18.30;99.90
42479;DHT22;28110;47.080;9.476;2022-09-12T08:27:12;18.40;99.90
42479;DHT22;28110;47.080;9.476;2022-09-12T08:29:39;18.60;99.90
42479;DHT22;28110;47.080;9.476;2022-09-12T08:32:04;18.70;99.90
42479;DHT22;28110;47.080;9.476;2022-09-12T08:34:30;18.80;99.90
42479;DHT22;28110;47.080;9.476;2022-09-12T08:36:55;18.90;99.90
42479;DHT22;28110;47.080;9.476;2022-09-12T08:39:22;19.00;99.90
42479;DHT22;28110;47.080;9.476;2022-09-12T08:42:04;19.10;99.90
42479;DHT22;28110;47.080;9.476;2022-09-12T08:47:18;19.20;99.90
42479;DHT22;28110;47.080;9.476;2022-09-12T08:57:44;19.60;99.90
42479;DHT22;28110;47.080;9.476;2022-09-12T09:00:14;19.60;99.90
42479;DHT22;28110;47.080;9.476;2022-09-12T09:08:50;19.90;99.90
42479;DHT22;28110;47.080;9.476;2022-09-12T09:16:51;20.10;99.90
42479;DHT22;28110;47.080;9.476;2022-09-12T09:19:31;20.10;99.90
42479;DHT22;28110;47.080;9.476;2022-09-12T09:22:05;20.20;99.90
42479;DHT22;28110;47.080;9.476;2022-09-12T09:24:37;20.30;99.90
42479;DHT22;28110;47.080;9.476;2022-09-12T09:27:19;20.30;99.90
42479;DHT22;28110;47.080;9.476;2022-09-12T09:29:53;20.40;99.90
42479;DHT22;28110;47.080;9.476;2022-09-12T09:32:33;20.40;99.90
42479;DHT22;28110;47.080;9.476;2022-09-12T09:35:11;20.50;99.90
42479;DHT22;28110;47.080;9.476;2022-09-12T09:38:04;20.50;99.90
42479;DHT22;28110;47.080;9.476;2022-09-12T09:40:59;20.50;99.90
42479;DHT22;28110;47.080;9.476;2022-09-12T09:43:27;20.70;99.90
42479;DHT22;28110;47.080;9.476;2022-09-12T09:45:53;20.80;99.90
42479;DHT22;28110;47.080;9.476;2022-09-12T09:48:30;20.80;99.90
42479;DHT22;28110;47.080;9.476;2022-09-12T09:50:58;21.00;99.90
42479;DHT22;28110;47.080;9.476;2022-09-12T09:53:33;21.00;99.90
42479;DHT22;28110;47.080;9.476;2022-09-12T09:56:02;21.10;99.90
42479;DHT22;28110;47.080;9.476;2022-09-12T09:58:31;21.20;99.90
42479;DHT22;28110;47.080;9.476;2022-09-12T10:01:05;21.30;99.90
42479;DHT22;28110;47.080;9.476;2022-09-12T10:03:37;21.40;99.90
42479;DHT22;28110;47.080;9.476;2022-09-12T10:08:45;21.50;99.90
42479;DHT22;28110;47.080;9.476;2022-09-12T10:13:52;21.70;99.90
42479;DHT22;28110;47.080;9.476;2022-09-12T10:16:33;21.80;99.90
42479;DHT22;28110;47.080;9.476;2022-09-12T10:19:01;21.80;99.90
42479;DHT22;28110;47.080;9.476;2022-09-12T10:21:35;21.80;99.50
42479;DHT22;28110;47.080;9.476;2022-09-12T10:26:50;21.90;99.70
42479;DHT22;28110;47.080;9.476;2022-09-12T10:29:20;22.00;99.50
42479;DHT22;28110;47.080;9.476;2022-09-12T10:31:53;22.00;97.70
42479;DHT22;28110;47.080;9.476;2022-09-12T10:34:29;22.00;96.20
42479;DHT22;28110;47.080;9.476;2022-09-12T10:37:09;22.00;96.70
42479;DHT22;28110;47.080;9.476;2022-09-12T10:39:40;22.00;97.30
42479;DHT22;28110;47.080;9.476;2022-09-12T10:42:14;22.00;98.90
42479;DHT22;28110;47.080;9.476;2022-09-12T10:44:51;22.00;98.10
42479;DHT22;28110;47.080;9.476;2022-09-12T10:47:21;22.00;97.20
42479;DHT22;28110;47.080;9.476;2022-09-12T10:49:47;21.80;97.80
42479;DHT22;28110;47.080;9.476;2022-09-12T10:52:21;21.70;97.40
42479;DHT22;28110;47.080;9.476;2022-09-12T10:54:48;21.70;97.70
42479;DHT22;28110;47.080;9.476;2022-09-12T10:57:33;21.70;99.00
42479;DHT22;28110;47.080;9.476;2022-09-12T11:00:11;21.60;99.00
42479;DHT22;28110;47.080;9.476;2022-09-12T11:05:56;21.50;99.50
42479;DHT22;28110;47.080;9.476;2022-09-12T11:11:37;21.50;98.50
42479;DHT22;28110;47.080;9.476;2022-09-12T11:14:12;21.60;99.90
42479;DHT22;28110;47.080;9.476;2022-09-12T11:17:19;21.70;99.70
42479;DHT22;28110;47.080;9.476;2022-09-12T11:24:44;21.90;99.20
42479;DHT22;28110;47.080;9.476;2022-09-12T11:27:31;22.00;99.90
42479;DHT22;28110;47.080;9.476;2022-09-12T11:30:18;22.10;99.90
42479;DHT22;28110;47.080;9.476;2022-09-12T11:35:28;22.20;99.90
42479;DHT22;28110;47.080;9.476;2022-09-12T11:40:33;22.20;99.00
42479;DHT22;28110;47.080;9.476;2022-09-12T11:46:00;22.20;99.90
42479;DHT22;28110;47.080;9.476;2022-09-12T11:51:18;22.20;99.90
42479;DHT22;28110;47.080;9.476;2022-09-12T11:53:50;22.20;99.90
42479;DHT22;28110;47.080;9.476;2022-09-12T11:56:18;22.10;99.90
42479;DHT22;28110;47.080;9.476;2022-09-12T11:58:51;22.20;99.90
42479;DHT22;28110;47.080;9.476;2022-09-12T12:01:32;22.20;99.90
42479;DHT22;28110;47.080;9.476;2022-09-12T12:04:02;22.30;99.90
42479;DHT22;28110;47.080;9.476;2022-09-12T12:06:54;22.30;99.90
42479;DHT22;28110;47.080;9.476;2022-09-12T12:09:17;22.40;99.90
42479;DHT22;28110;47.080;9.476;2022-09-12T12:12:06;22.40;99.90
42479;DHT22;28110;47.080;9.476;2022-09-12T12:14:52;22.40;99.90
42479;DHT22;28110;47.080;9.476;2022-09-12T12:17:21;22.40;99.90
42479;DHT22;28110;47.080;9.476;2022-09-12T12:19:56;22.30;99.90
42479;DHT22;28110;47.080;9.476;2022-09-12T12:22:23;22.30;99.90
42479;DHT22;28110;47.080;9.476;2022-09-12T12:27:44;22.30;99.90
42479;DHT22;28110;47.080;9.476;2022-09-12T12:38:01;22.30;99.90
42479;DHT22;28110;47.080;9.476;2022-09-12T12:40:28;22.40;99.90
42479;DHT22;28110;47.080;9.476;2022-09-12T12:48:14;22.50;99.90
42479;DHT22;28110;47.080;9.476;2022-09-12T12:50:41;22.50;99.90
42479;DHT22;28110;47.080;9.476;2022-09-12T12:53:20;22.40;99.90
42479;DHT22;28110;47.080;9.476;2022-09-12T12:55:49;22.60;99.90
42479;DHT22;28110;47.080;9.476;2022-09-12T12:58:35;22.60;99.90
42479;DHT22;28110;47.080;9.476;2022-09-12T13:03:34;22.60;98.50
42479;DHT22;28110;47.080;9.476;2022-09-12T13:06:03;22.60;98.20
42479;DHT22;28110;47.080;9.476;2022-09-12T13:08:32;22.70;94.30
42479;DHT22;28110;47.080;9.476;2022-09-12T13:11:06;22.70;95.50
42479;DHT22;28110;47.080;9.476;2022-09-12T13:13:56;22.70;95.50
42479;DHT22;28110;47.080;9.476;2022-09-12T13:16:51;22.70;95.70
42479;DHT22;28110;47.080;9.476;2022-09-12T13:19:23;22.70;92.30
42479;DHT22;28110;47.080;9.476;2022-09-12T13:22:04;22.70;92.60
42479;DHT22;28110;47.080;9.476;2022-09-12T13:24:30;22.70;93.50
42479;DHT22;28110;47.080;9.476;2022-09-12T13:26:56;22.80;94.00
42479;DHT22;28110;47.080;9.476;2022-09-12T13:29:24;22.80;94.30
42479;DHT22;28110;47.080;9.476;2022-09-12T13:31:57;22.70;92.80
42479;DHT22;28110;47.080;9.476;2022-09-12T13:37:01;22.80;93.80
42479;DHT22;28110;47.080;9.476;2022-09-12T13:42:19;22.90;91.70
42479;DHT22;28110;47.080;9.476;2022-09-12T13:44:56;22.90;92.10
42479;DHT22;28110;47.080;9.476;2022-09-12T13:47:29;23.00;91.80
42479;DHT22;28110;47.080;9.476;2022-09-12T13:49:56;23.00;92.40
42479;DHT22;28110;47.080;9.476;2022-09-12T13:52:25;23.00;92.10
42479;DHT22;28110;47.080;9.476;2022-09-12T13:54:55;23.00;91.90
42479;DHT22;28110;47.080;9.476;2022-09-12T13:57:31;23.00;92.40
42479;DHT22;28110;47.080;9.476;2022-09-12T13:59:58;23.00;93.20
42479;DHT22;28110;47.080;9.476;2022-09-12T14:02:26;23.00;92.80
42479;DHT22;28110;47.080;9.476;2022-09-12T14:04:53;23.00;94.60
42479;DHT22;28110;47.080;9.476;2022-09-12T14:07:59;23.00;93.80
42479;DHT22;28110;47.080;9.476;2022-09-12T14:10:29;22.90;92.60
42479;DHT22;28110;47.080;9.476;2022-09-12T14:12:57;22.90;92.40
42479;DHT22;28110;47.080;9.476;2022-09-12T14:15:26;22.90;93.10
42479;DHT22;28110;47.080;9.476;2022-09-12T14:17:55;22.90;93.40
42479;DHT22;28110;47.080;9.476;2022-09-12T14:20:30;22.90;92.90
42479;DHT22;28110;47.080;9.476;2022-09-12T14:23:14;22.90;94.90
42479;DHT22;28110;47.080;9.476;2022-09-12T14:25:43;22.90;94.40
42479;DHT22;28110;47.080;9.476;2022-09-12T14:28:13;22.80;94.60
42479;DHT22;28110;47.080;9.476;2022-09-12T14:31:06;22.80;95.10
42479;DHT22;28110;47.080;9.476;2022-09-12T14:33:45;22.70;94.50
42479;DHT22;28110;47.080;9.476;2022-09-12T14:38:43;22.70;95.20
42479;DHT22;28110;47.080;9.476;2022-09-12T14:41:12;22.60;95.40
42479;DHT22;28110;47.080;9.476;2022-09-12T14:43:43;22.50;95.60
42479;DHT22;28110;47.080;9.476;2022-09-12T14:46:26;22.50;95.90
42479;DHT22;28110;47.080;9.476;2022-09-12T14:48:59;22.40;96.20
42479;DHT22;28110;47.080;9.476;2022-09-12T14:51:32;22.40;95.90
42479;DHT22;28110;47.080;9.476;2022-09-12T14:53:59;22.30;96.40
42479;DHT22;28110;47.080;9.476;2022-09-12T14:59:35;22.30;96.60
42479;DHT22;28110;47.080;9.476;2022-09-12T15:04:48;22.20;97.90
42479;DHT22;28110;47.080;9.476;2022-09-12T15:12:35;22.10;97.40
42479;DHT22;28110;47.080;9.476;2022-09-12T15:15:20;22.00;97.70
42479;DHT22;28110;47.080;9.476;2022-09-12T15:17:46;21.90;97.90
42479;DHT22;28110;47.080;9.476;2022-09-12T15:20:12;21.90;98.20
42479;DHT22;28110;47.080;9.476;2022-09-12T15:22:39;21.90;98.50
42479;DHT22;28110;47.080;9.476;2022-09-12T15:25:05;21.80;99.40
42479;DHT22;28110;47.080;9.476;2022-09-12T15:27:31;21.80;99.70
42479;DHT22;28110;47.080;9.476;2022-09-12T15:29:57;21.70;99.90
42479;DHT22;28110;47.080;9.476;2022-09-12T15:32:25;21.70;99.90
42479;DHT22;28110;47.080;9.476;2022-09-12T15:34:51;21.70;99.90
42479;DHT22;28110;47.080;9.476;2022-09-12T15:37:18;21.60;99.90
42479;DHT22;28110;47.080;9.476;2022-09-12T15:39:46;21.60;99.90
42479;DHT22;28110;47.080;9.476;2022-09-12T15:42:12;21.50;99.90
42479;DHT22;28110;47.080;9.476;2022-09-12T15:44:39;21.50;99.90
42479;DHT22;28110;47.080;9.476;2022-09-12T15:47:04;21.40;99.90
42479;DHT22;28110;47.080;9.476;2022-09-12T15:49:30;21.30;99.90
42479;DHT22;28110;47.080;9.476;2022-09-12T15:51:56;21.30;99.90
42479;DHT22;28110;47.080;9.476;2022-09-12T15:54:22;21.30;99.90
42479;DHT22;28110;47.080;9.476;2022-09-12T15:56:48;21.20;99.90
42479;DHT22;28110;47.080;9.476;2022-09-12T15:59:13;21.10;99.90
42479;DHT22;28110;47.080;9.476;2022-09-12T16:01:39;21.00;99.90
42479;DHT22;28110;47.080;9.476;2022-09-12T16:04:20;21.00;99.90
42479;DHT22;28110;47.080;9.476;2022-09-12T16:06:47;20.90;99.90
42479;DHT22;28110;47.080;9.476;2022-09-12T16:09:13;20.80;99.90
42479;DHT22;28110;47.080;9.476;2022-09-12T16:11:39;20.70;99.90
42479;DHT22;28110;47.080;9.476;2022-09-12T16:14:06;20.70;99.90
42479;DHT22;28110;47.080;9.476;2022-09-12T16:16:31;20.60;99.90
42479;DHT22;28110;47.080;9.476;2022-09-12T16:18:57;20.50;99.90
42479;DHT22;28110;47.080;9.476;2022-09-12T16:21:22;20.50;99.90
42479;DHT22;28110;47.080;9.476;2022-09-12T16:23:49;20.50;99.90
42479;DHT22;28110;47.080;9.476;2022-09-12T16:26:15;20.50;99.90
42479;DHT22;28110;47.080;9.476;2022-09-12T16:28:40;20.50;99.90
42479;DHT22;28110;47.080;9.476;2022-09-12T16:31:07;20.40;99.90
42479;DHT22;28110;47.080;9.476;2022-09-12T16:33:36;20.30;99.90
42479;DHT22;28110;47.080;9.476;2022-09-12T16:36:04;20.30;99.90
42479;DHT22;28110;47.080;9.476;2022-09-12T16:38:30;20.20;99.90
42479;DHT22;28110;47.080;9.476;2022-09-12T16:41:00;20.20;99.90
42479;DHT22;28110;47.080;9.476;2022-09-12T16:43:26;20.10;99.90
42479;DHT22;28110;47.080;9.476;2022-09-12T16:46:00;20.00;99.90
42479;DHT22;28110;47.080;9.476;2022-09-12T16:48:27;19.90;99.90
42479;DHT22;28110;47.080;9.476;2022-09-12T16:50:56;19.80;99.90
42479;DHT22;28110;47.080;9.476;2022-09-12T16:53:23;19.70;99.90
42479;DHT22;28110;47.080;9.476;2022-09-12T16:55:49;19.60;99.90
42479;DHT22;28110;47.080;9.476;2022-09-12T16:58:15;19.50;99.90
42479;DHT22;28110;47.080;9.476;2022-09-12T17:00:41;19.50;99.90
42479;DHT22;28110;47.080;9.476;2022-09-12T17:03:06;19.40;99.90
42479;DHT22;28110;47.080;9.476;2022-09-12T17:05:32;19.30;99.90
42479;DHT22;28110;47.080;9.476;2022-09-12T17:07:58;19.30;99.90
42479;DHT22;28110;47.080;9.476;2022-09-12T17:10:23;19.20;99.90
42479;DHT22;28110;47.080;9.476;2022-09-12T17:12:50;19.20;99.90
42479;DHT22;28110;47.080;9.476;2022-09-12T17:15:15;19.10;99.90
42479;DHT22;28110;47.080;9.476;2022-09-12T17:17:41;19.10;99.90
42479;DHT22;28110;47.080;9.476;2022-09-12T17:20:07;19.00;99.90
42479;DHT22;28110;47.080;9.476;2022-09-12T17:22:32;19.00;99.90
42479;DHT22;28110;47.080;9.476;2022-09-12T17:24:59;19.00;99.90
42479;DHT22;28110;47.080;9.476;2022-09-12T17:27:24;18.90;99.90
42479;DHT22;28110;47.080;9.476;2022-09-12T17:29:50;18.80;99.90
42479;DHT22;28110;47.080;9.476;2022-09-12T17:32:15;18.80;99.90
42479;DHT22;28110;47.080;9.476;2022-09-12T17:34:41;18.80;99.90
42479;DHT22;28110;47.080;9.476;2022-09-12T17:37:06;18.70;99.90
42479;DHT22;28110;47.080;9.476;2022-09-12T17:39:32;18.70;99.90
42479;DHT22;28110;47.080;9.476;2022-09-12T17:41:57;18.60;99.90
42479;DHT22;28110;47.080;9.476;2022-09-12T17:44:24;18.60;99.90
42479;DHT22;28110;47.080;9.476;2022-09-12T17:46:49;18.60;99.90
42479;DHT22;28110;47.080;9.476;2022-09-12T17:49:16;18.50;99.90
42479;DHT22;28110;47.080;9.476;2022-09-12T17:51:43;18.50;99.90
42479;DHT22;28110;47.080;9.476;2022-09-12T17:54:12;18.50;99.90
42479;DHT22;28110;47.080;9.476;2022-09-12T17:56:39;18.50;99.90
42479;DHT22;28110;47.080;9.476;2022-09-12T17:59:06;18.40;99.90
42479;DHT22;28110;47.080;9.476;2022-09-12T18:01:33;18.40;99.90